As Olivia — DYQC — position and weather

sailwx.info

Track history (hours):
 
Tides and Currents Weather Stations Pressure Air Temp Water Temp Dewpoint Dewpoint Depression Visibility Wind Speed Wind Dir Waves Ship Positions

As Olivia

Last reported at 2014-Aug-22 09:20 UTC. Time now 2014-Aug-22 23:41 UTC.
Position N 40°50' E 001°09'.

Length 146 m; draft 8.1 m.

Type: Ship (hazmat cat B). MMSI: 548767000.

Date/timePositionNaut miles runAvg speedWind from/ knotsBaromVisibWave heightAir tempDewpointWater temp
2014-Aug-22 09:20N 40°50' E 001°09'1114.5
2014-Aug-22 08:33N 40°39' E 001°07'1414.4
2014-Aug-22 07:33N 40°25' E 001°03'1615.0
2014-Aug-22 06:29N 40°09' E 000°59'1414.0
2014-Aug-22 05:31N 39°56' E 000°56'4514.2
2014-Aug-22 02:23N 39°12' E 000°43'4314.1
2014-Aug-21 23:19N 38°33' E 000°21'2914.0
2014-Aug-21 21:17N 38°09' W 000°00'2513.9
2014-Aug-21 19:31N 37°49' W 000°17'1414.0
2014-Aug-21 18:32N 37°37' W 000°27'1313.4
2014-Aug-21 17:33N 37°29' W 000°40'1514.4
2014-Aug-21 16:32N 37°31' W 000°59'5 0.3
2014-Aug-21 00:21N 37°33' W 001°04'  
2014-Aug-18 14:20N 37°32' W 001°01'44 7.1
2014-Aug-18 08:13N 36°58' W 001°35'1213.1
2014-Aug-18 07:18N 36°49' W 001°44'5011.9
2014-Aug-18 03:06N 36°19' W 002°34'13914.5
2014-Aug-17 17:31N 35°58' W 005°25'19212.8
2014-Aug-17 02:32N 36°30' W 009°19'1714.2
2014-Aug-17 01:21N 36°42' W 009°33'1114.1
2014-Aug-17 00:33N 36°52' W 009°40'1814.3
2014-Aug-16 23:16N 37°10' W 009°45'2514.5
2014-Aug-16 21:33N 37°34' W 009°52'465 9.3
2014-Aug-14 19:33N 43°22' W 003°06'0 0.0
2014-Aug-14 18:33N 43°22' W 003°06'  
Track history (hours):
 
Tides and Currents Weather Stations Pressure Air Temp Water Temp Dewpoint Dewpoint Depression Visibility Wind Speed Wind Dir Waves Ship Positions

As Olivia

Last reported at 2014-Aug-22 09:20 UTC. Time now 2014-Aug-22 23:41 UTC.
Position N 40°50' E 001°09'.

Length 146 m; draft 8.1 m.

Type: Ship (hazmat cat B). MMSI: 548767000.

Date/timePositionNaut miles runAvg speedWind from/ knotsBaromVisibWave heightAir tempDewpointWater temp
2014-Aug-22 09:20N 40°50' E 001°09'1114.5
2014-Aug-22 08:33N 40°39' E 001°07'1414.4
2014-Aug-22 07:33N 40°25' E 001°03'1615.0
2014-Aug-22 06:29N 40°09' E 000°59'1414.0
2014-Aug-22 05:31N 39°56' E 000°56'4514.2
2014-Aug-22 02:23N 39°12' E 000°43'4314.1
2014-Aug-21 23:19N 38°33' E 000°21'2914.0
2014-Aug-21 21:17N 38°09' W 000°00'2513.9
2014-Aug-21 19:31N 37°49' W 000°17'1414.0
2014-Aug-21 18:32N 37°37' W 000°27'1313.4
2014-Aug-21 17:33N 37°29' W 000°40'1514.4
2014-Aug-21 16:32N 37°31' W 000°59'5 0.3
2014-Aug-21 00:21N 37°33' W 001°04'  
2014-Aug-18 14:20N 37°32' W 001°01'44 7.1
2014-Aug-18 08:13N 36°58' W 001°35'1213.1
2014-Aug-18 07:18N 36°49' W 001°44'5011.9
2014-Aug-18 03:06N 36°19' W 002°34'13914.5
2014-Aug-17 17:31N 35°58' W 005°25'19212.8
2014-Aug-17 02:32N 36°30' W 009°19'1714.2
2014-Aug-17 01:21N 36°42' W 009°33'1114.1
2014-Aug-17 00:33N 36°52' W 009°40'1814.3
2014-Aug-16 23:16N 37°10' W 009°45'2514.5
2014-Aug-16 21:33N 37°34' W 009°52'465 9.3
2014-Aug-14 19:33N 43°22' W 003°06'0 0.0
2014-Aug-14 18:33N 43°22' W 003°06'  

Dump ship's entire track history